Sunkist, California
Current Conditions -  °F | °C
As of 5:53 AM on Friday 31 Oct 2014 (Local Time) from KFUL Reporting Station
Few Clouds Few Clouds  
Wind Chill: 61°   Ceiling: Unl
Heat Index: 61°   Visibility: 10mi
Dew Point: 56°   Wind: 3mph
Humidity: 83%   Direction: 70°ENE
Pressure: 29.94"   Gusts: NA
Location:  33.8393°N, 117.87°W
Report Text: KFUL 311253Z 07003KT 10SM FEW025 16/13 A2994 RMK AO2 SLP137 T01610133 $
Loading
Personal Weather Stations






























Interactive Weather Map New forecast layout! Learn more

10-Day Weather Forecast

Advertisements
Track Severe Weather on mobile